Time;durP1;ratioP1;P1;durP2;ratioP2;P2;SDS_P1;SDS_P2;PMS_P1;PMS_P2;Temp;Humidity;BMP_temperature;BMP_pressure;BME280_temperature;BME280_humidity;BME280_pressure;Samples;Min_cycle;Max_cycle;Signal;HPM_P1;HPM_P2
2023/07/21 00:01:36;;;;;;;5.47;4.10;;;20.60;99.90;;;;;;5079694;28;20225;-78
2023/07/21 00:04:03;;;;;;;5.10;4.23;;;20.50;99.90;;;;;;5081210;28;20533;-80
2023/07/21 00:06:29;;;;;;;4.53;4.17;;;20.60;99.90;;;;;;5082788;28;20266;-79
2023/07/21 00:08:56;;;;;;;4.90;4.50;;;20.60;99.90;;;;;;5080848;28;20214;-78
2023/07/21 00:11:22;;;;;;;4.93;4.47;;;20.60;99.90;;;;;;5081059;28;20171;-79
2023/07/21 00:13:49;;;;;;;5.10;4.70;;;20.50;99.90;;;;;;5080204;28;20185;-79
2023/07/21 00:16:15;;;;;;;5.10;4.60;;;20.50;99.90;;;;;;5081057;28;20181;-79
2023/07/21 00:18:41;;;;;;;5.00;4.60;;;20.40;99.90;;;;;;5078453;28;20297;-78
2023/07/21 00:21:07;;;;;;;5.00;4.60;;;20.50;99.90;;;;;;5085970;28;20175;-79
2023/07/21 00:23:33;;;;;;;6.23;4.57;;;20.40;99.90;;;;;;5092364;28;20186;-79
2023/07/21 00:26:00;;;;;;;5.10;4.60;;;20.40;99.90;;;;;;5082515;28;20187;-76
2023/07/21 00:28:29;;;;;;;6.73;5.67;;;20.50;99.90;;;;;;5081279;28;20194;-78
2023/07/21 00:30:56;;;;;;;5.70;5.13;;;20.50;99.90;;;;;;5090594;28;20167;-78
2023/07/21 00:33:24;;;;;;;5.53;4.63;;;20.50;99.90;;;;;;5096559;28;20266;-80
2023/07/21 00:35:50;;;;;;;5.93;4.90;;;20.50;99.90;;;;;;5096000;28;20174;-78
2023/07/21 00:38:16;;;;;;;5.00;4.60;;;20.40;99.90;;;;;;5087231;28;20642;-77
2023/07/21 00:40:42;;;;;;;4.60;4.30;;;20.60;99.90;;;;;;5081816;28;20225;-75
2023/07/21 00:43:16;;;;;;;4.77;4.37;;;20.60;99.90;;;;;;5080327;28;20179;-77
2023/07/21 00:45:42;;;;;;;5.37;4.47;;;20.60;99.90;;;;;;5080667;28;20186;-78
2023/07/21 00:48:09;;;;;;;4.90;4.50;;;20.60;99.90;;;;;;5083169;28;20182;-79
2023/07/21 00:50:50;;;;;;;4.40;4.00;;;20.40;99.90;;;;;;5080094;28;20636;-77
2023/07/21 00:53:18;;;;;;;4.77;4.47;;;20.40;99.90;;;;;;5078464;28;20194;-78
2023/07/21 00:55:47;;;;;;;4.77;4.07;;;20.30;99.90;;;;;;5078433;28;20312;-78
2023/07/21 00:58:22;;;;;;;4.40;4.00;;;20.30;99.90;;;;;;5079011;28;20203;-78
2023/07/21 01:00:50;;;;;;;4.80;4.00;;;20.30;99.90;;;;;;5079057;28;20174;-78
2023/07/21 01:03:18;;;;;;;5.93;3.87;;;20.20;99.90;;;;;;5079216;28;20202;-78
2023/07/21 01:05:47;;;;;;;4.00;3.80;;;20.20;99.90;;;;;;5080641;28;20167;-77
2023/07/21 01:08:16;;;;;;;4.30;3.57;;;20.30;99.90;;;;;;5081011;28;20630;-78
2023/07/21 01:10:43;;;;;;;4.00;3.70;;;20.30;99.90;;;;;;5081217;28;20167;-77
2023/07/21 01:13:11;;;;;;;5.23;3.97;;;20.40;99.90;;;;;;5083263;28;20175;-79
2023/07/21 01:15:43;;;;;;;4.20;3.90;;;20.40;99.90;;;;;;5088415;28;20254;-77
2023/07/21 01:18:12;;;;;;;4.63;4.23;;;20.50;99.90;;;;;;5083132;28;20294;-79
2023/07/21 01:20:41;;;;;;;4.40;4.10;;;20.50;99.90;;;;;;5078305;28;20179;-77
2023/07/21 01:24:10;;;;;;;5.23;4.00;;;20.50;99.90;;;;;;5079981;28;20171;-77
2023/07/21 01:26:39;;;;;;;4.90;4.50;;;20.50;99.90;;;;;;5066151;28;20186;-78
2023/07/21 01:29:08;;;;;;;5.20;4.23;;;20.40;99.90;;;;;;5077213;28;20190;-79
2023/07/21 01:31:35;;;;;;;4.37;4.03;;;20.40;99.90;;;;;;5080284;28;20205;-78
2023/07/21 01:34:03;;;;;;;5.33;4.87;;;20.50;99.90;;;;;;5079160;28;20172;-78
2023/07/21 01:36:31;;;;;;;5.27;4.83;;;20.50;99.90;;;;;;5077601;28;20261;-79
2023/07/21 01:38:58;;;;;;;5.67;4.50;;;20.40;99.90;;;;;;5078949;28;20207;-79
2023/07/21 01:41:26;;;;;;;4.67;4.27;;;20.50;99.90;;;;;;5077627;28;20231;-79
2023/07/21 01:43:58;;;;;;;4.73;4.20;;;21.50;99.90;;;;;;5078866;28;20172;-79
2023/07/21 01:46:26;;;;;;;4.90;4.50;;;20.40;99.90;;;;;;5079083;28;20155;-79
2023/07/21 01:48:52;;;;;;;4.83;4.33;;;20.40;99.90;;;;;;5081887;28;20179;-79
2023/07/21 01:51:21;;;;;;;5.67;5.10;;;20.40;99.90;;;;;;5079226;28;20254;-79
2023/07/21 01:53:54;;;;;;;5.17;4.77;;;20.40;99.90;;;;;;5079265;28;20197;-80
2023/07/21 01:56:45;;;;;;;6.40;4.83;;;20.40;99.90;;;;;;5078631;28;20219;-80
2023/07/21 01:59:15;;;;;;;5.53;5.00;;;20.40;99.90;;;;;;5094335;28;20198;-78
2023/07/21 02:01:42;;;;;;;4.97;4.57;;;20.40;99.90;;;;;;5079236;28;20160;-79
2023/07/21 02:04:08;;;;;;;5.13;4.33;;;20.40;99.90;;;;;;5078503;28;20236;-78
2023/07/21 02:06:35;;;;;;;5.40;4.90;;;20.30;99.90;;;;;;5078474;28;20242;-80
2023/07/21 02:09:00;;;;;;;5.10;4.70;;;20.30;99.90;;;;;;5084285;28;20250;-79
2023/07/21 02:11:26;;;;;;;4.70;4.40;;;20.30;99.90;;;;;;5093532;28;20233;-79
2023/07/21 02:13:52;;;;;;;5.10;4.70;;;20.30;99.90;;;;;;5083436;28;20227;-76
2023/07/21 02:16:23;;;;;;;5.50;5.10;;;20.20;99.90;;;;;;5079373;28;20593;-78
2023/07/21 02:18:50;;;;;;;5.33;4.93;;;20.20;99.90;;;;;;5076531;28;20213;-79
2023/07/21 02:21:17;;;;;;;5.63;5.13;;;20.30;99.90;;;;;;5077085;28;20193;-82
2023/07/21 02:23:43;;;;;;;5.60;5.17;;;20.30;99.90;;;;;;5086747;28;20171;-79
2023/07/21 02:26:09;;;;;;;5.60;5.10;;;20.20;99.90;;;;;;5092583;28;20183;-78
2023/07/21 02:28:36;;;;;;;7.07;4.90;;;20.20;99.90;;;;;;5080311;28;20529;-77
2023/07/21 02:31:03;;;;;;;5.43;4.93;;;20.20;99.90;;;;;;5078828;28;20179;-77
2023/07/21 02:33:33;;;;;;;5.30;4.90;;;20.20;99.90;;;;;;5078595;28;20163;-79
2023/07/21 02:36:00;;;;;;;5.33;4.90;;;20.20;99.90;;;;;;5078298;28;20259;-80
2023/07/21 02:38:27;;;;;;;6.10;5.00;;;20.10;99.90;;;;;;5078604;28;20217;-77
2023/07/21 02:40:55;;;;;;;5.50;5.00;;;20.00;99.90;;;;;;5078498;28;20591;-79
2023/07/21 02:43:23;;;;;;;5.33;4.87;;;20.00;99.90;;;;;;5062709;28;20183;-78
2023/07/21 02:45:54;;;;;;;5.37;4.90;;;19.90;99.90;;;;;;5080062;28;20248;-79
2023/07/21 02:48:21;;;;;;;5.40;5.00;;;19.90;99.90;;;;;;5078122;28;20175;-78
2023/07/21 02:50:51;;;;;;;7.07;5.30;;;19.80;99.90;;;;;;5079834;28;20175;-77
2023/07/21 02:53:18;;;;;;;6.27;5.27;;;19.80;99.90;;;;;;5091420;28;20173;-77
2023/07/21 02:55:46;;;;;;;5.70;5.17;;;19.80;99.90;;;;;;5093788;28;20207;-78
2023/07/21 02:58:17;;;;;;;6.37;5.77;;;19.80;99.90;;;;;;5082151;28;20206;-78
2023/07/21 03:00:43;;;;;;;5.93;5.43;;;19.70;99.90;;;;;;5078579;28;20211;-78
2023/07/21 03:03:15;;;;;;;5.63;5.23;;;19.70;99.90;;;;;;5078827;28;20194;-77
2023/07/21 03:05:42;;;;;;;6.20;5.70;;;19.80;99.90;;;;;;5077367;28;20197;-79
2023/07/21 03:08:09;;;;;;;6.07;5.57;;;19.80;99.90;;;;;;5079209;28;20182;-79
2023/07/21 03:10:34;;;;;;;5.77;5.13;;;19.80;99.90;;;;;;5081639;28;20181;-77
2023/07/21 03:13:00;;;;;;;5.97;5.27;;;19.90;99.90;;;;;;5079755;28;20199;-79
2023/07/21 03:15:26;;;;;;;6.07;5.63;;;19.90;99.90;;;;;;5079468;28;20183;-77
2023/07/21 03:17:52;;;;;;;8.73;5.53;;;20.00;99.90;;;;;;5074705;28;20171;-80
2023/07/21 03:20:18;;;;;;;6.20;5.53;;;20.00;99.90;;;;;;5074118;28;20179;-82
2023/07/21 03:22:48;;;;;;;5.87;5.37;;;20.10;99.90;;;;;;5074387;28;20167;-79
2023/07/21 03:25:13;;;;;;;6.23;5.50;;;20.20;99.90;;;;;;5074482;28;20205;-78
2023/07/21 03:27:40;;;;;;;5.83;5.33;;;20.20;99.90;;;;;;5074685;28;20236;-80
2023/07/21 03:30:09;;;;;;;5.97;4.93;;;20.20;99.90;;;;;;5084685;28;20276;-78
2023/07/21 03:32:35;;;;;;;4.93;4.53;;;20.10;99.90;;;;;;5088288;28;20163;-79
2023/07/21 03:35:04;;;;;;;5.00;4.60;;;20.00;99.90;;;;;;5096082;28;20178;-79
2023/07/21 03:37:31;;;;;;;5.43;5.03;;;19.80;99.90;;;;;;5094696;28;20178;-80
2023/07/21 03:39:57;;;;;;;5.33;4.57;;;19.80;99.90;;;;;;5090732;28;20214;-79
2023/07/21 03:42:26;;;;;;;7.70;5.00;;;19.80;99.90;;;;;;5090918;28;20176;-82
2023/07/21 03:44:52;;;;;;;5.20;4.80;;;19.80;99.90;;;;;;5083361;28;20276;-79
2023/07/21 03:47:19;;;;;;;6.00;4.77;;;19.90;99.90;;;;;;5094572;28;20176;-79
2023/07/21 03:49:50;;;;;;;5.53;4.97;;;19.90;99.90;;;;;;5076714;28;20175;-78
2023/07/21 03:52:18;;;;;;;4.83;4.43;;;20.00;99.90;;;;;;5075286;28;20158;-78
2023/07/21 03:54:43;;;;;;;5.33;4.83;;;20.00;99.90;;;;;;5077177;28;20171;-78
2023/07/21 03:57:10;;;;;;;5.77;5.37;;;20.00;99.90;;;;;;5077476;28;20167;-80
2023/07/21 03:59:37;;;;;;;5.43;5.03;;;20.00;99.90;;;;;;5075196;28;20215;-83
2023/07/21 04:02:03;;;;;;;5.00;4.60;;;20.00;99.90;;;;;;5079203;28;20207;-84
2023/07/21 04:04:32;;;;;;;8.10;4.90;;;20.00;99.90;;;;;;5079358;28;20194;-85
2023/07/21 04:07:01;;;;;;;6.57;4.33;;;20.00;99.90;;;;;;5075953;28;20171;-84
2023/07/21 04:09:29;;;;;;;4.60;4.20;;;19.80;99.90;;;;;;5075790;28;20517;-84
2023/07/21 04:11:54;;;;;;;4.87;4.47;;;19.80;99.90;;;;;;5079595;28;20175;-84
2023/07/21 04:14:20;;;;;;;6.77;4.00;;;19.90;99.90;;;;;;5096850;28;20233;-82
2023/07/21 04:16:46;;;;;;;5.13;4.73;;;19.90;99.90;;;;;;5092844;28;20705;-81
2023/07/21 04:19:12;;;;;;;4.57;4.10;;;19.90;99.90;;;;;;5085418;28;20628;-84
2023/07/21 04:21:37;;;;;;;4.50;4.10;;;19.90;99.90;;;;;;5081155;28;20238;-83
2023/07/21 04:24:03;;;;;;;4.70;4.23;;;19.80;99.90;;;;;;5096191;28;20190;-83
2023/07/21 04:26:29;;;;;;;3.90;3.60;;;19.80;99.90;;;;;;5077470;28;20183;-84
2023/07/21 04:28:55;;;;;;;4.20;3.80;;;19.80;99.90;;;;;;5077483;28;20179;-81
2023/07/21 04:31:21;;;;;;;4.40;4.00;;;19.90;99.90;;;;;;5082385;28;20160;-83
2023/07/21 04:33:48;;;;;;;4.40;4.00;;;19.70;99.90;;;;;;5098829;28;20238;-82
2023/07/21 04:36:14;;;;;;;4.33;4.03;;;19.50;99.90;;;;;;5094317;28;20195;-79
2023/07/21 04:38:41;;;;;;;4.73;4.33;;;19.40;99.90;;;;;;5079899;28;20276;-81
2023/07/21 04:41:06;;;;;;;6.43;4.27;;;19.40;99.90;;;;;;5076549;28;20175;-80
2023/07/21 04:43:32;;;;;;;4.43;4.03;;;19.30;99.90;;;;;;5074636;28;20186;-81
2023/07/21 04:45:58;;;;;;;4.27;3.90;;;19.50;99.90;;;;;;5076055;28;20172;-80
2023/07/21 04:48:24;;;;;;;4.57;4.17;;;19.70;99.90;;;;;;5075887;28;20198;-81
2023/07/21 04:50:53;;;;;;;5.07;4.20;;;19.70;99.90;;;;;;5075827;28;20207;-84
2023/07/21 04:53:19;;;;;;;5.90;3.90;;;19.80;99.90;;;;;;5076271;28;20649;-83
2023/07/21 04:55:45;;;;;;;4.13;3.83;;;19.70;99.90;;;;;;5075373;28;20230;-80
2023/07/21 04:58:11;;;;;;;4.07;3.77;;;19.80;99.90;;;;;;5075953;28;20589;-82
2023/07/21 05:00:37;;;;;;;4.00;3.70;;;19.90;99.90;;;;;;5075449;28;20210;-79
2023/07/21 05:03:02;;;;;;;4.40;4.10;;;19.80;99.90;;;;;;5074594;28;20177;-80
2023/07/21 05:05:28;;;;;;;4.30;3.90;;;19.90;99.90;;;;;;5075497;28;20171;-81
2023/07/21 05:07:55;;;;;;;4.27;3.93;;;19.90;99.90;;;;;;5077381;28;20168;-82
2023/07/21 05:10:21;;;;;;;4.20;3.80;;;19.90;99.90;;;;;;5083007;28;20199;-77
2023/07/21 05:12:49;;;;;;;3.50;3.20;;;20.10;99.90;;;;;;5086436;28;20217;-78
2023/07/21 05:15:15;;;;;;;3.93;3.13;;;20.10;99.90;;;;;;5076658;28;20167;-79
2023/07/21 05:17:41;;;;;;;3.07;2.87;;;20.20;99.90;;;;;;5074414;28;20183;-79
2023/07/21 05:20:07;;;;;;;3.53;3.23;;;20.30;99.90;;;;;;5081809;28;20855;-79
2023/07/21 05:22:33;;;;;;;3.30;3.10;;;20.30;99.90;;;;;;5095451;28;20201;-77
2023/07/21 05:24:59;;;;;;;3.50;3.30;;;20.40;99.90;;;;;;5089235;28;20182;-81
2023/07/21 05:27:25;;;;;;;3.53;3.33;;;20.50;99.90;;;;;;5077034;28;20182;-82
2023/07/21 05:29:51;;;;;;;3.87;3.57;;;20.50;99.90;;;;;;5076730;28;20190;-80
2023/07/21 05:32:16;;;;;;;3.70;3.50;;;20.50;99.90;;;;;;5073743;28;20668;-80
2023/07/21 05:34:42;;;;;;;3.90;3.60;;;20.50;99.90;;;;;;5075104;28;20179;-77
2023/07/21 05:37:11;;;;;;;5.43;4.10;;;20.40;99.90;;;;;;5073669;28;20183;-77
2023/07/21 05:39:37;;;;;;;5.17;4.77;;;20.40;99.90;;;;;;5074633;28;20549;-81
2023/07/21 05:42:03;;;;;;;6.47;5.07;;;20.20;99.90;;;;;;5075110;28;20171;-77
2023/07/21 05:44:30;;;;;;;5.40;5.00;;;20.20;99.90;;;;;;5074619;28;20509;-77
2023/07/21 05:46:56;;;;;;;5.33;4.83;;;20.20;99.90;;;;;;5073282;28;20235;-78
2023/07/21 05:49:22;;;;;;;5.00;4.60;;;20.00;99.90;;;;;;5074756;28;20203;-77
2023/07/21 05:51:48;;;;;;;5.57;4.87;;;20.00;99.90;;;;;;5074896;28;20159;-78
2023/07/21 05:54:14;;;;;;;5.00;4.60;;;20.10;99.90;;;;;;5082898;28;20179;-80
2023/07/21 05:56:40;;;;;;;5.73;5.00;;;20.10;99.90;;;;;;5076699;28;20219;-79
2023/07/21 05:59:06;;;;;;;4.57;4.27;;;20.20;99.90;;;;;;5075712;28;20218;-79
2023/07/21 06:01:34;;;;;;;5.40;4.87;;;20.30;99.90;;;;;;5073902;28;20636;-79
2023/07/21 06:04:03;;;;;;;5.67;5.17;;;20.30;99.90;;;;;;5085387;28;20203;-74
2023/07/21 06:06:31;;;;;;;4.77;4.47;;;20.40;99.90;;;;;;5092782;28;20179;-77
2023/07/21 06:08:56;;;;;;;5.50;4.90;;;20.30;99.90;;;;;;5087857;28;20175;-79
2023/07/21 06:11:23;;;;;;;4.60;4.23;;;20.30;99.90;;;;;;5084983;28;20243;-78
2023/07/21 06:13:50;;;;;;;4.47;4.17;;;20.30;99.90;;;;;;5095023;28;20175;-78
2023/07/21 06:16:16;;;;;;;4.83;4.43;;;20.20;99.90;;;;;;5094055;28;20198;-79
2023/07/21 06:18:43;;;;;;;5.07;4.60;;;20.30;99.90;;;;;;5096937;28;20195;-78
2023/07/21 06:21:11;;;;;;;4.77;4.23;;;20.30;99.90;;;;;;5076356;28;20163;-81
2023/07/21 06:23:38;;;;;;;4.53;4.10;;;20.30;99.90;;;;;;5080159;28;20167;-78
2023/07/21 06:26:04;;;;;;;4.63;3.90;;;20.40;99.90;;;;;;5073969;28;20246;-79
2023/07/21 06:28:30;;;;;;;6.30;4.60;;;20.40;99.90;;;;;;5073869;28;20607;-79
2023/07/21 06:30:55;;;;;;;4.97;4.53;;;20.40;99.90;;;;;;5076626;28;20179;-80
2023/07/21 06:33:22;;;;;;;7.13;4.33;;;20.30;99.90;;;;;;5076516;28;20175;-81
2023/07/21 06:35:50;;;;;;;5.00;4.60;;;20.40;99.90;;;;;;5072592;28;20639;-78
2023/07/21 06:38:17;;;;;;;5.27;4.77;;;20.30;99.90;;;;;;5072490;28;20202;-79
2023/07/21 06:40:43;;;;;;;5.23;4.63;;;20.20;99.90;;;;;;5073556;28;20254;-80
2023/07/21 06:43:08;;;;;;;6.20;5.60;;;20.20;99.90;;;;;;5072634;28;20265;-80
2023/07/21 06:45:39;;;;;;;5.63;5.13;;;20.20;99.90;;;;;;5075053;28;20171;-80
2023/07/21 06:48:07;;;;;;;7.37;5.83;;;20.10;99.90;;;;;;5091843;28;20171;-77
2023/07/21 06:50:40;;;;;;;6.43;5.93;;;20.10;99.90;;;;;;5054894;28;20187;-80
2023/07/21 06:53:06;;;;;;;6.20;5.70;;;20.20;99.90;;;;;;5073745;28;20164;-76
2023/07/21 06:55:33;;;;;;;6.60;6.00;;;20.20;99.90;;;;;;5071707;28;20233;-76
2023/07/21 06:57:58;;;;;;;6.77;6.17;;;20.20;99.90;;;;;;5085937;28;20222;-77
2023/07/21 07:00:24;;;;;;;7.70;6.50;;;20.10;99.90;;;;;;5085251;28;20194;-77
2023/07/21 07:02:50;;;;;;;6.40;5.80;;;20.00;99.90;;;;;;5075834;28;20179;-77
2023/07/21 07:05:17;;;;;;;6.27;5.67;;;20.00;99.90;;;;;;5076132;28;20638;-76
2023/07/21 07:07:42;;;;;;;6.23;5.73;;;20.10;99.90;;;;;;5075893;28;20608;-79
2023/07/21 07:10:09;;;;;;;6.27;5.77;;;20.00;99.90;;;;;;5073251;28;20202;-77
2023/07/21 07:12:35;;;;;;;6.13;5.60;;;20.10;99.90;;;;;;5072680;28;20171;-77
2023/07/21 07:15:01;;;;;;;6.23;5.70;;;20.20;99.90;;;;;;5072918;28;20183;-77
2023/07/21 07:17:26;;;;;;;5.53;5.13;;;20.30;99.90;;;;;;5076280;28;20186;-78
2023/07/21 07:19:52;;;;;;;4.77;4.33;;;20.20;99.90;;;;;;5071636;28;20215;-76
2023/07/21 07:22:18;;;;;;;5.77;5.10;;;20.10;99.90;;;;;;5073681;28;20229;-77
2023/07/21 07:24:43;;;;;;;4.80;4.40;;;20.10;99.90;;;;;;5074848;28;20175;-77
2023/07/21 07:27:09;;;;;;;4.93;4.43;;;20.00;99.90;;;;;;5075027;28;20175;-78
2023/07/21 07:29:35;;;;;;;4.90;4.43;;;19.90;99.90;;;;;;5075863;28;20187;-77
2023/07/21 07:32:01;;;;;;;4.17;3.90;;;19.80;99.90;;;;;;5078931;28;20181;-78
2023/07/21 07:34:27;;;;;;;4.07;3.77;;;19.80;99.90;;;;;;5081237;28;20549;-77
2023/07/21 07:36:53;;;;;;;3.67;3.40;;;19.70;99.90;;;;;;5076808;28;20254;-78
2023/07/21 07:39:19;;;;;;;3.80;3.50;;;19.60;99.90;;;;;;5076804;28;20669;-77
2023/07/21 07:41:45;;;;;;;3.80;3.60;;;19.60;99.90;;;;;;5075173;28;20249;-77
2023/07/21 07:44:11;;;;;;;3.67;3.40;;;19.50;99.90;;;;;;5076192;28;20581;-78
2023/07/21 07:46:37;;;;;;;3.70;3.40;;;19.60;99.90;;;;;;5076336;28;20167;-77
2023/07/21 07:49:03;;;;;;;3.20;3.00;;;19.70;99.90;;;;;;5076807;28;20167;-77
2023/07/21 07:51:30;;;;;;;3.20;3.00;;;19.80;99.90;;;;;;5089220;28;20175;-78
2023/07/21 07:53:57;;;;;;;3.00;2.80;;;19.80;99.90;;;;;;5098333;28;20231;-78
2023/07/21 07:56:22;;;;;;;2.90;2.70;;;19.90;99.90;;;;;;5098216;28;20218;-76
2023/07/21 07:58:49;;;;;;;3.20;3.00;;;20.00;99.90;;;;;;5077619;28;20206;-77
2023/07/21 08:01:14;;;;;;;3.20;3.00;;;20.20;99.90;;;;;;5076621;28;20171;-76
2023/07/21 08:03:43;;;;;;;2.97;2.73;;;20.30;99.90;;;;;;5084684;28;20167;-77
2023/07/21 08:06:13;;;;;;;2.97;2.77;;;20.40;99.90;;;;;;5090184;28;20171;-78
2023/07/21 08:08:40;;;;;;;3.00;2.80;;;20.50;99.90;;;;;;5065514;28;20635;-76
2023/07/21 08:11:06;;;;;;;3.03;2.83;;;20.60;99.90;;;;;;5077322;28;20709;-77
2023/07/21 08:13:32;;;;;;;3.27;2.93;;;20.70;99.90;;;;;;5080995;28;20181;-77
2023/07/21 08:15:58;;;;;;;3.07;2.77;;;20.80;99.90;;;;;;5076450;28;20240;-77
2023/07/21 08:18:24;;;;;;;2.40;2.30;;;21.10;99.90;;;;;;5077097;28;20698;-76
2023/07/21 08:20:51;;;;;;;2.30;2.20;;;21.30;99.90;;;;;;5076905;28;20171;-77
2023/07/21 08:23:16;;;;;;;2.50;2.40;;;21.30;99.90;;;;;;5080442;28;20250;-74
2023/07/21 08:25:42;;;;;;;2.30;2.20;;;21.50;99.90;;;;;;5086469;28;20574;-76
2023/07/21 08:28:08;;;;;;;2.77;2.60;;;21.70;99.90;;;;;;5081029;28;20175;-78
2023/07/21 08:30:37;;;;;;;3.03;2.80;;;21.90;99.90;;;;;;5081497;28;20167;-79
2023/07/21 08:33:03;;;;;;;2.80;2.60;;;22.20;99.90;;;;;;5076772;28;20529;-77
2023/07/21 08:35:29;;;;;;;3.37;2.70;;;22.40;99.90;;;;;;5084629;28;20222;-78
2023/07/21 08:37:55;;;;;;;2.43;2.23;;;22.60;99.90;;;;;;5085239;28;20250;-77
2023/07/21 08:40:22;;;;;;;2.73;2.63;;;22.60;99.90;;;;;;5079002;28;20249;-77
2023/07/21 08:42:50;;;;;;;2.70;2.50;;;22.80;99.90;;;;;;5073241;28;20179;-78
2023/07/21 08:45:16;;;;;;;2.50;2.40;;;22.90;99.90;;;;;;5075502;28;20179;-79
2023/07/21 08:47:42;;;;;;;2.72;2.63;;;23.30;99.90;;;;;;5075824;28;20599;-80
2023/07/21 08:50:08;;;;;;;2.85;2.65;;;23.60;99.90;;;;;;5075878;28;20175;-79
2023/07/21 08:52:34;;;;;;;4.10;2.70;;;23.90;99.90;;;;;;5075083;28;20179;-78
2023/07/21 08:55:03;;;;;;;2.70;2.60;;;24.10;99.90;;;;;;5070339;28;20232;-77
2023/07/21 08:57:29;;;;;;;2.30;2.20;;;24.20;99.90;;;;;;5074661;28;20643;-77
2023/07/21 08:59:55;;;;;;;2.53;2.40;;;24.30;99.90;;;;;;5077173;28;20243;-77
2023/07/21 09:02:41;;;;;;;2.30;2.20;;;24.00;99.90;;;;;;5078550;28;20250;-77
2023/07/21 09:05:07;;;;;;;2.72;2.53;;;24.20;99.90;;;;;;5080952;28;20168;-78
2023/07/21 09:07:35;;;;;;;2.65;2.40;;;24.30;99.90;;;;;;5079922;28;20655;-79
2023/07/21 09:10:00;;;;;;;2.20;2.10;;;24.50;99.90;;;;;;5076709;28;20171;-77
2023/07/21 09:12:35;;;;;;;2.65;2.53;;;24.60;99.90;;;;;;5076317;28;20186;-76
2023/07/21 09:15:10;;;;;;;2.30;2.20;;;24.70;99.90;;;;;;5077534;28;20159;-77
2023/07/21 09:17:43;;;;;;;2.80;2.60;;;24.90;99.90;;;;;;5076323;28;20215;-76
2023/07/21 09:20:10;;;;;;;2.35;2.25;;;24.80;99.90;;;;;;5076970;28;20203;-78
2023/07/21 09:22:38;;;;;;;2.38;2.20;;;25.00;99.90;;;;;;5076276;28;20530;-77
2023/07/21 09:25:04;;;;;;;2.60;2.38;;;25.20;99.90;;;;;;5077057;28;20297;-77
2023/07/21 09:27:30;;;;;;;2.50;2.30;;;25.40;99.90;;;;;;5076997;28;20171;-77
2023/07/21 09:30:03;;;;;;;2.28;2.17;;;25.40;99.90;;;;;;5076236;28;20183;-75
2023/07/21 09:32:40;;;;;;;2.90;2.70;;;25.40;99.90;;;;;;5082105;28;20283;-77
2023/07/21 09:35:08;;;;;;;2.78;2.58;;;25.40;99.90;;;;;;5083988;28;20178;-77
2023/07/21 09:37:35;;;;;;;2.65;2.45;;;25.20;99.90;;;;;;5078281;28;20175;-77
2023/07/21 09:40:10;;;;;;;2.78;2.58;;;25.00;99.90;;;;;;5075466;28;20666;-77
2023/07/21 09:42:38;;;;;;;2.30;2.20;;;25.00;99.90;;;;;;5078025;28;20602;-77
2023/07/21 09:45:04;;;;;;;2.67;2.33;;;25.10;99.90;;;;;;5078532;28;20171;-77
2023/07/21 09:47:30;;;;;;;2.85;2.65;;;24.90;99.90;;;;;;5089846;28;20168;-79
2023/07/21 09:49:58;;;;;;;2.53;2.42;;;24.90;99.90;;;;;;5090842;28;20239;-76
2023/07/21 09:52:26;;;;;;;2.90;2.60;;;25.10;99.90;;;;;;5082263;28;20183;-76
2023/07/21 09:55:13;;;;;;;2.42;2.22;;;25.20;99.90;;;;;;5076420;28;20175;-76
2023/07/21 09:57:45;;;;;;;2.22;2.13;;;25.40;99.90;;;;;;5076158;28;20182;-76
2023/07/21 10:00:15;;;;;;;2.28;2.17;;;25.50;99.90;;;;;;5076642;28;20264;-77
2023/07/21 10:02:45;;;;;;;2.50;2.40;;;25.70;99.90;;;;;;5086643;28;20201;-77
2023/07/21 10:05:11;;;;;;;2.50;2.40;;;26.00;99.90;;;;;;5090285;28;20231;-75
2023/07/21 10:07:45;;;;;;;2.40;2.20;;;26.10;99.90;;;;;;5082100;28;20202;-76
2023/07/21 10:10:12;;;;;;;2.35;2.25;;;26.10;99.90;;;;;;5064636;28;20186;-77
2023/07/21 10:12:42;;;;;;;2.45;2.35;;;26.20;99.90;;;;;;5063221;28;20176;-77
2023/07/21 10:15:19;;;;;;;3.15;2.60;;;26.10;99.90;;;;;;5085572;28;20182;-77
2023/07/21 10:18:09;;;;;;;2.58;2.47;;;26.10;99.90;;;;;;5077690;28;20197;-76
2023/07/21 10:20:41;;;;;;;2.40;2.30;;;26.00;99.90;;;;;;5082117;28;20171;-75
2023/07/21 10:23:08;;;;;;;2.53;2.42;;;26.30;99.90;;;;;;5083250;28;20444;-76
2023/07/21 10:26:07;;;;;;;6.53;2.60;;;26.40;99.90;;;;;;5084136;28;20171;-76
2023/07/21 10:28:35;;;;;;;2.65;2.55;;;26.50;99.90;;;;;;5076308;28;20202;-76
2023/07/21 10:31:38;;;;;;;2.40;2.20;;;26.40;99.90;;;;;;5094933;28;20155;-76
2023/07/21 10:34:10;;;;;;;2.47;2.30;;;26.00;99.90;;;;;;5049017;28;20176;-77
2023/07/21 10:36:51;;;;;;;2.55;2.40;;;25.90;99.90;;;;;;5030429;28;20192;-77
2023/07/21 10:39:28;;;;;;;2.30;2.20;;;26.00;99.90;;;;;;5037955;28;20243;-76
2023/07/21 10:41:56;;;;;;;2.63;2.53;;;26.30;99.90;;;;;;5033269;28;20167;-75
2023/07/21 10:44:22;;;;;;;2.55;2.45;;;26.70;99.90;;;;;;5032433;28;20571;-77
2023/07/21 10:46:50;;;;;;;2.50;2.40;;;26.80;99.90;;;;;;5031414;28;20534;-79
2023/07/21 10:49:17;;;;;;;3.15;2.15;;;26.80;99.90;;;;;;5015739;28;20598;-78
2023/07/21 10:51:45;;;;;;;2.70;2.50;;;26.50;99.90;;;;;;5028288;28;20180;-79
2023/07/21 10:54:12;;;;;;;2.38;2.28;;;26.00;99.90;;;;;;5015099;28;20227;-76
2023/07/21 10:56:42;;;;;;;3.25;2.88;;;25.70;99.90;;;;;;5033220;28;20248;-78
2023/07/21 10:59:09;;;;;;;2.38;2.28;;;25.50;99.90;;;;;;5031560;28;20723;-77
2023/07/21 11:01:40;;;;;;;2.63;2.35;;;25.30;99.90;;;;;;5034468;28;20251;-76
2023/07/21 11:04:07;;;;;;;2.70;2.50;;;25.00;99.90;;;;;;5040658;28;20185;-75
2023/07/21 11:06:39;;;;;;;2.90;2.70;;;24.90;99.90;;;;;;5041908;28;20183;-77
2023/07/21 11:09:05;;;;;;;2.78;2.67;;;24.80;99.90;;;;;;5039271;28;20544;-77
2023/07/21 11:11:31;;;;;;;2.75;2.65;;;24.60;99.90;;;;;;5081507;28;20166;-77
2023/07/21 11:13:56;;;;;;;2.63;2.53;;;24.50;99.90;;;;;;5081703;22;20320;-77
2023/07/21 11:16:22;;;;;;;2.30;2.20;;;24.40;99.90;;;;;;5004576;28;20691;-75
2023/07/21 11:18:49;;;;;;;2.88;2.67;;;24.40;99.90;;;;;;4954428;28;20296;-75
2023/07/21 11:21:15;;;;;;;3.25;3.00;;;24.30;99.90;;;;;;5001934;28;20233;-77
2023/07/21 11:23:41;;;;;;;2.70;2.50;;;24.30;99.90;;;;;;5001784;28;20208;-77
2023/07/21 11:26:11;;;;;;;2.47;2.38;;;24.50;99.90;;;;;;5000681;28;20209;-77
2023/07/21 11:28:44;;;;;;;2.92;2.60;;;24.50;99.90;;;;;;4983562;28;20185;-78
2023/07/21 11:31:14;;;;;;;2.58;2.30;;;24.60;99.90;;;;;;5002013;28;20227;-75
2023/07/21 11:33:46;;;;;;;2.53;2.42;;;24.50;99.90;;;;;;5000369;28;20177;-75
2023/07/21 11:36:22;;;;;;;2.55;2.45;;;24.40;99.90;;;;;;5000558;28;20384;-77
2023/07/21 11:39:03;;;;;;;2.53;2.42;;;24.30;99.90;;;;;;4983013;28;20202;-79
2023/07/21 11:41:40;;;;;;;2.50;2.30;;;24.30;99.90;;;;;;5001639;28;20169;-78
2023/07/21 11:44:11;;;;;;;3.03;2.70;;;24.30;99.90;;;;;;5003067;28;20173;-77
2023/07/21 11:46:40;;;;;;;9.05;2.72;;;24.40;99.90;;;;;;4988510;28;20657;-78
2023/07/21 11:49:11;;;;;;;2.78;2.67;;;24.40;99.90;;;;;;5005546;28;20276;-78
2023/07/21 11:51:48;;;;;;;2.72;2.60;;;24.40;99.90;;;;;;5000914;28;20517;-77
2023/07/21 11:54:40;;;;;;;2.70;2.60;;;24.40;99.90;;;;;;5001175;28;20166;-76
2023/07/21 11:57:06;;;;;;;2.72;2.60;;;24.60;99.90;;;;;;4983612;28;20210;-76
2023/07/21 11:59:32;;;;;;;2.80;2.70;;;24.80;99.90;;;;;;4999553;28;20213;-76
2023/07/21 12:01:58;;;;;;;2.70;2.60;;;25.00;99.90;;;;;;4982438;28;20272;-77
2023/07/21 12:04:24;;;;;;;2.85;2.65;;;25.10;99.90;;;;;;5000516;28;20176;-78
2023/07/21 12:06:51;;;;;;;2.58;2.47;;;25.30;99.90;;;;;;5004871;28;20490;-75
2023/07/21 12:09:19;;;;;;;3.35;2.88;;;25.30;99.90;;;;;;5009710;28;20192;-77
2023/07/21 12:11:46;;;;;;;2.65;2.45;;;25.50;99.90;;;;;;5002655;28;20223;-76
2023/07/21 12:14:11;;;;;;;2.85;2.60;;;25.50;99.90;;;;;;4979980;28;20688;-76
2023/07/21 12:16:38;;;;;;;3.30;3.00;;;25.60;99.90;;;;;;4996860;28;20229;-75
2023/07/21 12:19:04;;;;;;;3.03;2.85;;;25.70;99.90;;;;;;4997451;28;20264;-76
2023/07/21 12:21:31;;;;;;;2.83;2.70;;;25.80;99.90;;;;;;4998138;28;20253;-77
2023/07/21 12:23:58;;;;;;;2.72;2.63;;;25.80;99.90;;;;;;4996982;28;20201;-76
2023/07/21 12:26:24;;;;;;;2.60;2.50;;;25.90;99.90;;;;;;4997748;28;20549;-77
2023/07/21 12:28:51;;;;;;;2.88;2.70;;;26.10;99.90;;;;;;4997437;28;20261;-76
2023/07/21 12:31:19;;;;;;;2.55;2.45;;;26.30;99.90;;;;;;5000711;28;20213;-78
2023/07/21 12:33:47;;;;;;;3.13;2.92;;;26.40;99.90;;;;;;5002922;23;20232;-77
2023/07/21 12:36:14;;;;;;;3.08;2.90;;;26.50;99.90;;;;;;4999707;28;20264;-76
2023/07/21 12:38:43;;;;;;;3.00;2.70;;;26.60;99.90;;;;;;5017025;28;20344;-77
2023/07/21 12:41:10;;;;;;;2.80;2.65;;;26.70;99.90;;;;;;5016156;28;20219;-76
2023/07/21 12:43:36;;;;;;;2.92;2.40;;;26.70;99.90;;;;;;5003042;28;20214;-79
2023/07/21 12:46:03;;;;;;;3.05;2.92;;;26.80;99.90;;;;;;5014886;28;20188;-77
2023/07/21 12:48:30;;;;;;;2.80;2.67;;;26.60;99.90;;;;;;5021863;28;20662;-76
2023/07/21 12:50:57;;;;;;;2.70;2.60;;;26.50;99.90;;;;;;5016609;28;20174;-77
2023/07/21 12:53:23;;;;;;;3.10;2.90;;;26.40;99.90;;;;;;5017020;28;20265;-76